Time;durP1;ratioP1;P1;durP2;ratioP2;P2;SDS_P1;SDS_P2;PMS_P1;PMS_P2;Temp;Humidity;BMP_temperature;BMP_pressure;BME280_temperature;BME280_humidity;BME280_pressure;Samples;Min_cycle;Max_cycle;Signal;HPM_P1;HPM_P2
2023/11/22 00:00:31;;;;;;;16.43;9.43;;;0.10;99.90;;;;;;4440030;28;657601;-78
2023/11/22 00:03:19;;;;;;;19.87;10.07;;;0.10;99.90;;;;;;4424233;28;657390;-78
2023/11/22 00:06:07;;;;;;;18.00;9.40;;;0.00;99.90;;;;;;4441624;28;658611;-79
2023/11/22 00:08:54;;;;;;;13.90;6.87;;;0.00;99.90;;;;;;4419584;28;657024;-78
2023/11/22 00:11:41;;;;;;;19.13;9.87;;;0.10;99.90;;;;;;4446159;28;655928;-79
2023/11/22 00:14:28;;;;;;;19.92;10.90;;;0.00;99.90;;;;;;4434304;28;656441;-78
2023/11/22 00:17:18;;;;;;;18.73;10.00;;;0.10;99.90;;;;;;4452831;28;658142;-79
2023/11/22 00:20:07;;;;;;;19.73;9.47;;;0.10;99.90;;;;;;4427670;28;657752;-79
2023/11/22 00:22:55;;;;;;;4.77;3.03;;;0.00;99.90;;;;;;4434441;28;656976;-78
2023/11/22 00:25:42;;;;;;;16.37;8.70;;;0.00;99.90;;;;;;4453071;28;654721;-79
2023/11/22 00:28:29;;;;;;;16.03;8.30;;;-0.10;99.90;;;;;;4429142;28;656954;-78
2023/11/22 00:31:16;;;;;;;20.37;10.70;;;-0.20;99.90;;;;;;4467924;28;657709;-79
2023/11/22 00:34:05;;;;;;;20.33;10.27;;;-0.10;99.90;;;;;;4438333;28;658418;-79
2023/11/22 00:36:52;;;;;;;17.63;9.37;;;-0.10;99.90;;;;;;4454211;27;659334;-77
2023/11/22 00:39:40;;;;;;;20.73;10.53;;;0.00;99.90;;;;;;4461836;27;657806;-79
2023/11/22 00:42:27;;;;;;;19.87;10.57;;;-0.10;99.90;;;;;;4460870;27;657399;-80
2023/11/22 00:45:14;;;;;;;19.10;10.30;;;-0.20;99.90;;;;;;4437732;27;658970;-79
2023/11/22 00:48:02;;;;;;;21.17;10.97;;;-0.20;99.90;;;;;;4458650;27;658094;-79
2023/11/22 00:50:50;;;;;;;22.83;10.63;;;-0.20;99.90;;;;;;4442444;27;658392;-79
2023/11/22 00:53:38;;;;;;;24.53;11.37;;;-0.20;99.90;;;;;;4427594;28;658993;-78
2023/11/22 00:56:25;;;;;;;19.03;10.13;;;-0.20;99.90;;;;;;4459306;28;659524;-77
2023/11/22 00:59:19;;;;;;;22.43;11.07;;;-0.20;99.90;;;;;;4446868;28;659276;-76
2023/11/22 01:02:08;;;;;;;22.10;12.30;;;-0.20;99.90;;;;;;4429904;27;658830;-80
2023/11/22 01:04:55;;;;;;;26.40;13.23;;;-0.20;99.90;;;;;;4430122;28;659218;-79
2023/11/22 01:07:44;;;;;;;25.58;12.85;;;-0.30;99.90;;;;;;4438651;27;658740;-76
2023/11/22 01:10:31;;;;;;;27.83;13.93;;;-0.30;99.90;;;;;;4462676;27;658857;-79
2023/11/22 01:13:18;;;;;;;31.33;14.10;;;-0.30;99.90;;;;;;4439960;27;659115;-79
2023/11/22 01:16:06;;;;;;;27.90;14.83;;;-0.30;99.90;;;;;;4456174;27;659413;-79
2023/11/22 01:18:53;;;;;;;25.97;13.87;;;-0.30;99.90;;;;;;4435022;27;658874;-79
2023/11/22 01:21:40;;;;;;;24.77;12.93;;;-0.30;99.90;;;;;;4462591;27;659683;-79
2023/11/22 01:24:29;;;;;;;26.63;13.97;;;-0.30;99.90;;;;;;4427971;27;658396;-77
2023/11/22 01:27:16;;;;;;;29.67;14.93;;;-0.40;99.90;;;;;;4455692;27;658372;-80
2023/11/22 01:30:07;;;;;;;27.60;14.03;;;-0.40;99.90;;;;;;4428735;27;658838;-78
2023/11/22 01:32:55;;;;;;;31.07;15.07;;;-0.40;99.90;;;;;;4426453;28;659083;-79
2023/11/22 01:35:42;;;;;;;29.47;14.57;;;-0.40;99.90;;;;;;4455439;27;658944;-78
2023/11/22 01:38:29;;;;;;;32.07;15.90;;;-0.40;99.90;;;;;;4437165;27;659138;-79
2023/11/22 01:41:18;;;;;;;26.63;13.30;;;-0.50;99.90;;;;;;4459335;27;658269;-79
2023/11/22 01:44:06;;;;;;;27.83;13.80;;;-0.50;99.90;;;;;;4437424;27;658378;-77
2023/11/22 01:46:53;;;;;;;32.37;15.53;;;-0.60;99.90;;;;;;4432723;27;659078;-79
2023/11/22 01:49:41;;;;;;;62.57;12.47;;;-0.60;99.90;;;;;;4451597;28;659217;-79
2023/11/22 01:52:28;;;;;;;29.70;13.00;;;-0.60;99.90;;;;;;4436853;27;659009;-78
2023/11/22 01:55:15;;;;;;;29.60;13.93;;;-0.50;99.90;;;;;;4451835;27;658562;-79
2023/11/22 01:58:04;;;;;;;22.03;10.47;;;-0.60;99.90;;;;;;4430804;27;658569;-78
2023/11/22 02:00:52;;;;;;;26.93;12.00;;;-0.60;99.90;;;;;;4449944;27;659399;-77
2023/11/22 02:03:39;;;;;;;25.30;12.13;;;-0.60;99.90;;;;;;4439689;27;660251;-78
2023/11/22 02:06:27;;;;;;;26.43;12.63;;;-0.60;99.90;;;;;;4455781;27;658983;-79
2023/11/22 02:09:15;;;;;;;31.43;15.27;;;-0.60;99.90;;;;;;4432982;27;659245;-79
2023/11/22 02:12:03;;;;;;;28.02;13.10;;;-0.60;99.90;;;;;;4437600;27;658599;-77
2023/11/22 02:14:51;;;;;;;30.87;14.83;;;-0.60;99.90;;;;;;4448092;27;659243;-79
2023/11/22 02:17:39;;;;;;;13.83;7.33;;;-0.70;99.90;;;;;;4429163;27;658971;-79
2023/11/22 02:20:26;;;;;;;26.67;13.90;;;-0.70;99.90;;;;;;4451614;28;657266;-79
2023/11/22 02:23:15;;;;;;;29.37;14.33;;;-0.60;99.90;;;;;;4423374;27;659469;-79
2023/11/22 02:26:02;;;;;;;29.87;15.13;;;-0.70;99.90;;;;;;4458816;27;659301;-77
2023/11/22 02:28:50;;;;;;;29.73;14.40;;;-0.70;99.90;;;;;;4455723;27;658542;-79
2023/11/22 02:31:37;;;;;;;30.27;14.47;;;-0.70;99.90;;;;;;4449433;28;658626;-79
2023/11/22 02:34:25;;;;;;;33.07;16.37;;;-0.70;99.90;;;;;;4438881;27;659065;-79
2023/11/22 02:37:13;;;;;;;28.70;14.33;;;-0.60;99.90;;;;;;4452388;27;658212;-79
2023/11/22 02:40:06;;;;;;;26.77;13.07;;;-0.60;99.90;;;;;;4462591;27;659578;-79
2023/11/22 02:42:54;;;;;;;34.63;14.70;;;-0.60;99.90;;;;;;4437750;27;658873;-79
2023/11/22 02:45:41;;;;;;;31.83;14.23;;;-0.60;99.90;;;;;;4455497;27;658881;-79
2023/11/22 02:48:28;;;;;;;28.83;13.80;;;-0.60;99.90;;;;;;4436225;28;658270;-79
2023/11/22 02:51:16;;;;;;;30.02;14.60;;;-0.60;99.90;;;;;;4457827;27;658177;-79
2023/11/22 02:54:05;;;;;;;30.23;13.93;;;-0.60;99.90;;;;;;4420346;27;659585;-79
2023/11/22 02:56:55;;;;;;;33.75;15.25;;;-0.60;99.90;;;;;;4435998;27;658584;-76
2023/11/22 02:59:43;;;;;;;36.33;15.37;;;-0.60;99.90;;;;;;4442303;28;658264;-78
2023/11/22 03:02:31;;;;;;;29.67;13.70;;;-0.60;99.90;;;;;;4445828;27;659552;-79
2023/11/22 03:05:19;;;;;;;36.50;17.33;;;-0.60;99.90;;;;;;4431210;27;658823;-80
2023/11/22 03:08:07;;;;;;;37.40;17.30;;;-0.70;99.90;;;;;;4451699;27;659577;-80
2023/11/22 03:10:54;;;;;;;40.40;17.53;;;-0.70;99.90;;;;;;4438753;27;659696;-78
2023/11/22 03:13:43;;;;;;;38.70;18.00;;;-0.70;99.90;;;;;;4452068;28;658490;-79
2023/11/22 03:16:31;;;;;;;38.90;17.73;;;-0.80;99.90;;;;;;4439205;27;658608;-79
2023/11/22 03:19:19;;;;;;;35.90;16.20;;;-0.70;99.90;;;;;;4425324;28;658933;-79
2023/11/22 03:22:06;;;;;;;31.37;15.80;;;-0.80;99.90;;;;;;4457433;28;658660;-79
2023/11/22 03:24:53;;;;;;;35.00;16.03;;;-0.80;99.90;;;;;;4437786;27;658533;-77
2023/11/22 03:27:40;;;;;;;36.95;16.00;;;-0.80;99.90;;;;;;4450224;28;658603;-79
2023/11/22 03:30:29;;;;;;;30.20;14.63;;;-0.80;99.90;;;;;;4428350;27;658683;-79
2023/11/22 03:33:16;;;;;;;29.13;13.27;;;-0.80;99.90;;;;;;4457258;28;658676;-79
2023/11/22 03:36:05;;;;;;;31.07;15.50;;;-0.80;99.90;;;;;;4432073;27;658229;-79
2023/11/22 03:38:53;;;;;;;25.73;11.40;;;-0.80;99.90;;;;;;4443169;27;658821;-76
2023/11/22 03:41:40;;;;;;;33.27;15.40;;;-0.80;99.90;;;;;;4454708;28;658654;-79
2023/11/22 03:44:27;;;;;;;33.65;14.90;;;-0.90;99.90;;;;;;4430190;28;659489;-76
2023/11/22 03:47:16;;;;;;;32.90;15.33;;;-0.90;99.90;;;;;;4459024;28;658965;-78
2023/11/22 03:50:05;;;;;;;33.27;15.27;;;-0.90;99.90;;;;;;4427826;28;658437;-78
2023/11/22 03:52:52;;;;;;;23.38;9.52;;;-0.90;99.90;;;;;;4435843;28;658897;-75
2023/11/22 03:55:40;;;;;;;41.13;16.90;;;-0.90;99.90;;;;;;4454224;28;657782;-78
2023/11/22 03:58:27;;;;;;;33.87;15.63;;;-1.00;99.90;;;;;;4457778;28;658662;-78
2023/11/22 04:01:15;;;;;;;35.77;15.20;;;-1.00;99.90;;;;;;4459414;28;658758;-78
2023/11/22 04:04:04;;;;;;;33.83;15.03;;;-1.10;99.90;;;;;;4433926;28;658602;-78
2023/11/22 04:06:52;;;;;;;35.83;16.17;;;-1.10;99.90;;;;;;4451919;28;659166;-78
2023/11/22 04:09:39;;;;;;;35.93;14.60;;;-1.10;99.90;;;;;;4420209;28;659865;-78
2023/11/22 04:12:26;;;;;;;32.03;14.50;;;-1.10;99.90;;;;;;4457640;28;658349;-79
2023/11/22 04:15:14;;;;;;;37.53;15.90;;;-1.10;99.90;;;;;;4431028;27;658826;-79
2023/11/22 04:18:01;;;;;;;34.13;15.70;;;-1.10;99.90;;;;;;4448501;28;659512;-78
2023/11/22 04:20:49;;;;;;;37.83;17.67;;;-1.00;99.90;;;;;;4429447;28;658557;-78
2023/11/22 04:23:37;;;;;;;39.83;17.67;;;-1.00;99.90;;;;;;4449435;28;658638;-78
2023/11/22 04:26:24;;;;;;;36.30;16.03;;;-1.00;99.90;;;;;;4431575;27;659266;-78
2023/11/22 04:29:11;;;;;;;33.70;14.57;;;-1.00;99.90;;;;;;4462629;27;658386;-78
2023/11/22 04:31:59;;;;;;;44.07;16.47;;;-1.00;99.90;;;;;;4434606;27;658662;-78
2023/11/22 04:34:46;;;;;;;38.60;16.73;;;-1.00;99.90;;;;;;4455268;27;659298;-78
2023/11/22 04:37:34;;;;;;;37.30;17.83;;;-1.10;99.90;;;;;;4435911;27;658431;-78
2023/11/22 04:40:22;;;;;;;35.70;15.00;;;-1.20;99.90;;;;;;4452314;27;658775;-76
2023/11/22 04:43:09;;;;;;;35.33;16.37;;;-1.20;99.90;;;;;;4433258;27;658248;-78
2023/11/22 04:45:56;;;;;;;41.07;15.83;;;-1.20;99.90;;;;;;4450520;28;658377;-76
2023/11/22 04:48:44;;;;;;;27.98;13.00;;;-1.20;99.90;;;;;;4422836;27;660806;-78
2023/11/22 04:51:32;;;;;;;33.63;15.30;;;-1.20;99.90;;;;;;4457273;27;658566;-79
2023/11/22 04:54:21;;;;;;;34.00;15.90;;;-1.20;99.90;;;;;;4426366;28;658814;-78
2023/11/22 04:57:08;;;;;;;32.40;14.70;;;-1.20;99.90;;;;;;4441066;27;658601;-77
2023/11/22 04:59:55;;;;;;;30.43;14.00;;;-1.20;99.90;;;;;;4442236;28;659197;-77
2023/11/22 05:02:42;;;;;;;33.20;16.07;;;-1.20;99.90;;;;;;4434318;28;658565;-76
2023/11/22 05:05:30;;;;;;;36.70;16.27;;;-1.20;99.90;;;;;;4462236;27;658773;-78
2023/11/22 05:08:17;;;;;;;37.70;16.97;;;-1.20;99.90;;;;;;4459426;27;659825;-78
2023/11/22 05:11:05;;;;;;;37.07;15.87;;;-1.20;99.90;;;;;;4425560;27;660117;-78
2023/11/22 05:13:53;;;;;;;37.30;16.73;;;-1.20;99.90;;;;;;4430879;27;658605;-77
2023/11/22 05:16:40;;;;;;;39.23;16.23;;;-1.20;99.90;;;;;;4446244;28;660097;-79
2023/11/22 05:19:27;;;;;;;40.63;16.53;;;-1.20;99.90;;;;;;4450729;27;659437;-77
2023/11/22 05:22:14;;;;;;;37.60;13.67;;;-1.10;99.90;;;;;;4451168;28;658729;-79
2023/11/22 05:25:02;;;;;;;43.70;17.40;;;-1.10;99.90;;;;;;4451753;27;658696;-78
2023/11/22 05:27:51;;;;;;;34.00;15.83;;;-1.20;99.90;;;;;;4429514;27;658713;-79
2023/11/22 05:30:38;;;;;;;43.30;16.43;;;-1.20;99.90;;;;;;4433599;27;659541;-78
2023/11/22 05:33:25;;;;;;;39.47;14.90;;;-1.20;99.90;;;;;;4451378;28;659581;-79
2023/11/22 05:36:12;;;;;;;38.33;15.63;;;-1.20;99.90;;;;;;4430431;27;659574;-76
2023/11/22 05:39:00;;;;;;;38.90;15.57;;;-1.30;99.90;;;;;;4455978;28;659852;-78
2023/11/22 05:41:48;;;;;;;36.13;15.27;;;-1.30;99.90;;;;;;4443913;28;658519;-75
2023/11/22 05:44:37;;;;;;;35.07;15.10;;;-1.30;99.90;;;;;;4446081;28;659404;-78
2023/11/22 05:47:24;;;;;;;36.17;15.73;;;-1.30;99.90;;;;;;4432864;27;658818;-78
2023/11/22 05:50:11;;;;;;;31.40;13.90;;;-1.30;99.90;;;;;;4443862;28;658450;-78
2023/11/22 05:53:00;;;;;;;37.30;15.10;;;-1.40;99.90;;;;;;4430081;28;659058;-78
2023/11/22 05:55:47;;;;;;;25.73;10.87;;;-1.40;99.90;;;;;;4453175;28;658435;-77
2023/11/22 05:58:37;;;;;;;38.57;16.33;;;-1.40;99.90;;;;;;4422935;27;659031;-78
2023/11/22 06:01:26;;;;;;;40.00;16.23;;;-1.40;99.90;;;;;;4440694;28;658975;-78
2023/11/22 06:04:13;;;;;;;32.00;13.90;;;-1.40;99.90;;;;;;4435925;28;658632;-77
2023/11/22 06:07:00;;;;;;;35.83;14.97;;;-1.40;99.90;;;;;;4458237;27;659437;-78
2023/11/22 06:09:48;;;;;;;34.55;15.20;;;-1.30;99.90;;;;;;4429095;27;659323;-76
2023/11/22 06:12:35;;;;;;;39.00;15.53;;;-1.40;99.90;;;;;;4453030;27;658834;-78
2023/11/22 06:15:23;;;;;;;27.07;10.40;;;-1.40;99.90;;;;;;4428809;28;659128;-77
2023/11/22 06:18:13;;;;;;;33.77;13.70;;;-1.50;99.90;;;;;;4451619;27;659584;-77
2023/11/22 06:21:01;;;;;;;32.78;14.05;;;-1.50;99.90;;;;;;4424613;28;659352;-77
2023/11/22 06:23:49;;;;;;;32.03;14.10;;;-1.40;99.90;;;;;;4440228;28;659330;-77
2023/11/22 06:26:39;;;;;;;34.73;14.07;;;-1.40;99.90;;;;;;4455238;28;658151;-78
2023/11/22 06:29:27;;;;;;;31.97;13.93;;;-1.40;99.90;;;;;;4439877;27;658777;-78
2023/11/22 06:32:14;;;;;;;37.50;14.70;;;-1.40;99.90;;;;;;4436772;27;659261;-77
2023/11/22 06:35:02;;;;;;;30.77;14.03;;;-1.50;99.90;;;;;;4458894;27;658916;-78
2023/11/22 06:37:49;;;;;;;29.93;13.07;;;-1.40;99.90;;;;;;4425941;28;659035;-78
2023/11/22 06:40:36;;;;;;;30.80;12.63;;;-1.50;99.90;;;;;;4447134;27;658765;-78
2023/11/22 06:43:23;;;;;;;31.80;14.23;;;-1.50;99.90;;;;;;4440523;27;658854;-77
2023/11/22 06:46:11;;;;;;;35.57;14.53;;;-1.50;99.90;;;;;;4441577;28;659285;-78
2023/11/22 06:48:58;;;;;;;36.33;15.27;;;-1.50;99.90;;;;;;4433684;27;658624;-78
2023/11/22 06:51:47;;;;;;;39.10;15.83;;;-1.50;99.90;;;;;;4461546;27;659037;-77
2023/11/22 06:54:35;;;;;;;39.67;17.50;;;-1.50;99.90;;;;;;4446123;27;658998;-78
2023/11/22 06:57:28;;;;;;;40.00;17.67;;;-1.50;99.90;;;;;;4449136;27;658278;-77
2023/11/22 07:00:16;;;;;;;36.17;16.80;;;-1.50;99.90;;;;;;4437051;27;659607;-79
2023/11/22 07:03:03;;;;;;;43.93;17.13;;;-1.50;99.90;;;;;;4438452;27;659433;-76
2023/11/22 07:05:51;;;;;;;35.77;16.27;;;-1.50;99.90;;;;;;4451298;27;659352;-79
2023/11/22 07:08:39;;;;;;;36.10;14.43;;;-1.50;99.90;;;;;;4435394;27;658688;-78
2023/11/22 07:11:30;;;;;;;36.00;16.03;;;-1.50;99.90;;;;;;4454861;27;658815;-79
2023/11/22 07:14:18;;;;;;;43.63;18.23;;;-1.50;99.90;;;;;;4412842;27;659105;-76
2023/11/22 07:17:06;;;;;;;42.70;16.73;;;-1.50;99.90;;;;;;4451067;28;658599;-79
2023/11/22 07:19:54;;;;;;;38.60;16.23;;;-1.50;99.90;;;;;;4440027;27;658744;-78
2023/11/22 07:22:43;;;;;;;39.93;16.67;;;-1.50;99.90;;;;;;4459276;27;658371;-79
2023/11/22 07:25:31;;;;;;;42.57;15.90;;;-1.50;99.90;;;;;;4433018;28;659223;-78
2023/11/22 07:28:18;;;;;;;30.20;13.17;;;-1.50;99.90;;;;;;4425630;27;658316;-79
2023/11/22 07:31:09;;;;;;;35.07;14.07;;;-1.50;99.90;;;;;;4447892;27;658873;-79
2023/11/22 07:33:56;;;;;;;36.70;15.37;;;-1.60;99.90;;;;;;4430778;27;659067;-79
2023/11/22 07:36:44;;;;;;;39.30;17.00;;;-1.60;99.90;;;;;;4429027;28;658444;-79
2023/11/22 07:39:31;;;;;;;32.27;15.17;;;-1.60;99.90;;;;;;4439925;28;658706;-79
2023/11/22 07:42:19;;;;;;;30.33;13.57;;;-1.60;99.90;;;;;;4428209;28;658892;-78
2023/11/22 07:45:11;;;;;;;28.47;12.47;;;-1.60;99.90;;;;;;4451016;28;658942;-78
2023/11/22 07:47:59;;;;;;;28.73;11.43;;;-1.50;99.90;;;;;;4432211;28;658755;-79
2023/11/22 07:50:49;;;;;;;26.27;12.40;;;-1.50;99.90;;;;;;4459601;28;658724;-79
2023/11/22 07:53:36;;;;;;;33.27;13.70;;;-1.60;99.90;;;;;;4438358;27;658987;-79
2023/11/22 07:56:23;;;;;;;36.97;13.43;;;-1.50;99.90;;;;;;4445087;28;658864;-79
2023/11/22 07:59:12;;;;;;;27.77;13.17;;;-1.50;99.90;;;;;;4450332;28;659041;-81
2023/11/22 08:02:01;;;;;;;27.83;13.10;;;-1.60;99.90;;;;;;4428976;28;658950;-80
2023/11/22 08:04:50;;;;;;;32.15;13.13;;;-1.50;99.90;;;;;;4419926;28;658883;-80
2023/11/22 08:07:40;;;;;;;29.60;13.57;;;-1.50;99.90;;;;;;4426638;28;659071;-79
2023/11/22 08:10:27;;;;;;;30.60;13.77;;;-1.50;99.90;;;;;;4430958;28;658880;-77
2023/11/22 08:13:15;;;;;;;24.13;10.70;;;-1.40;99.90;;;;;;4457471;28;659327;-79
2023/11/22 08:16:05;;;;;;;29.50;13.27;;;-1.30;99.90;;;;;;4453978;28;658244;-78
2023/11/22 08:18:52;;;;;;;28.17;14.47;;;-1.30;99.90;;;;;;4437188;28;659010;-77
2023/11/22 08:21:40;;;;;;;30.67;14.40;;;-1.30;99.90;;;;;;4454874;28;658721;-79
2023/11/22 08:24:27;;;;;;;33.20;14.80;;;-1.20;99.90;;;;;;4448355;28;658355;-79
2023/11/22 08:27:16;;;;;;;28.43;13.20;;;-1.20;99.90;;;;;;4423533;28;659759;-78
2023/11/22 08:30:04;;;;;;;32.00;13.77;;;-1.10;99.90;;;;;;4428386;28;658610;-79
2023/11/22 08:32:53;;;;;;;34.03;13.00;;;-1.10;99.90;;;;;;4441771;28;659025;-78
2023/11/22 08:35:41;;;;;;;35.43;13.13;;;-1.10;99.90;;;;;;4433773;28;659119;-78
2023/11/22 08:38:28;;;;;;;31.10;13.40;;;-1.00;99.90;;;;;;4430078;28;659549;-77
2023/11/22 08:41:16;;;;;;;27.77;12.83;;;-1.10;99.90;;;;;;4457325;28;660618;-79
2023/11/22 08:44:04;;;;;;;30.47;13.97;;;-1.10;99.90;;;;;;4431832;28;658306;-79
2023/11/22 08:46:51;;;;;;;26.27;12.13;;;-1.20;99.90;;;;;;4454018;28;659504;-79
2023/11/22 08:49:41;;;;;;;23.23;10.77;;;-1.20;99.90;;;;;;4432838;28;658803;-78
2023/11/22 08:52:30;;;;;;;27.45;12.75;;;-1.10;99.90;;;;;;4437720;28;658575;-79
2023/11/22 08:55:20;;;;;;;26.08;12.15;;;-1.00;99.90;;;;;;4436305;28;659033;-77
2023/11/22 08:58:08;;;;;;;26.50;12.67;;;-1.00;99.90;;;;;;4455752;28;659108;-78
2023/11/22 09:00:57;;;;;;;27.57;12.43;;;-0.90;99.90;;;;;;4453909;27;660030;-79
2023/11/22 09:03:44;;;;;;;35.70;14.87;;;-0.90;99.90;;;;;;4435170;27;659195;-79
2023/11/22 09:06:34;;;;;;;27.63;13.80;;;-0.90;99.90;;;;;;4447259;28;658646;-80
2023/11/22 09:09:27;;;;;;;32.67;14.07;;;-0.90;99.90;;;;;;4440284;28;658514;-81
2023/11/22 09:12:14;;;;;;;29.20;12.53;;;-0.90;99.90;;;;;;4440847;27;658125;-78
2023/11/22 09:15:01;;;;;;;27.00;13.10;;;-1.00;99.90;;;;;;4456044;28;658530;-77
2023/11/22 09:17:48;;;;;;;23.73;10.63;;;-1.00;99.90;;;;;;4434144;27;658976;-78
2023/11/22 09:20:36;;;;;;;24.83;11.60;;;-1.00;99.90;;;;;;4453248;27;659207;-76
2023/11/22 09:23:26;;;;;;;24.17;10.93;;;-1.10;99.90;;;;;;4428429;27;658893;-77
2023/11/22 09:26:14;;;;;;;35.77;12.50;;;-1.00;99.90;;;;;;4442206;27;659206;-77
2023/11/22 09:29:01;;;;;;;21.03;8.57;;;-1.00;99.90;;;;;;4458453;27;658346;-77
2023/11/22 09:31:49;;;;;;;23.75;11.52;;;-1.00;99.90;;;;;;4438253;27;657717;-78
2023/11/22 09:34:36;;;;;;;25.07;11.60;;;-1.00;99.90;;;;;;4452345;27;658575;-77
2023/11/22 09:37:24;;;;;;;25.17;10.15;;;-0.90;99.90;;;;;;4435622;28;658486;-77
2023/11/22 09:40:17;;;;;;;20.23;7.93;;;-1.00;99.90;;;;;;4451580;28;659409;-77
2023/11/22 09:43:04;;;;;;;18.23;9.33;;;-0.90;99.90;;;;;;4407138;28;658046;-76
2023/11/22 09:45:54;;;;;;;24.20;11.87;;;-0.90;99.90;;;;;;4453838;28;658462;-77
2023/11/22 09:48:41;;;;;;;23.30;10.87;;;-1.00;99.90;;;;;;4422156;28;658347;-77
2023/11/22 09:51:32;;;;;;;25.27;11.43;;;-0.90;99.90;;;;;;4426446;28;658633;-77
2023/11/22 09:54:19;;;;;;;20.37;9.40;;;-0.90;99.90;;;;;;4432843;28;659399;-77
2023/11/22 09:57:10;;;;;;;20.63;10.15;;;-0.80;99.90;;;;;;4457982;27;657453;-77
2023/11/22 09:59:58;;;;;;;26.53;11.13;;;-0.80;99.90;;;;;;4407195;28;659292;-76
2023/11/22 10:02:45;;;;;;;24.87;11.10;;;-0.70;99.90;;;;;;4455151;28;658836;-77
2023/11/22 10:05:33;;;;;;;24.17;11.65;;;-0.70;99.90;;;;;;4430819;27;658788;-77
2023/11/22 10:08:22;;;;;;;25.97;11.97;;;-0.70;99.90;;;;;;4455593;27;658554;-77
2023/11/22 10:11:09;;;;;;;21.90;10.13;;;-0.70;99.90;;;;;;4431190;27;659246;-77
2023/11/22 10:13:58;;;;;;;24.77;11.37;;;-0.60;99.90;;;;;;4453952;28;658273;-77
2023/11/22 10:16:47;;;;;;;21.53;9.90;;;-0.60;99.90;;;;;;4433405;27;659117;-77
2023/11/22 10:19:35;;;;;;;19.50;9.70;;;-0.50;99.90;;;;;;4437481;27;658379;-77
2023/11/22 10:22:22;;;;;;;22.53;9.50;;;-0.50;99.90;;;;;;4453235;28;656870;-77
2023/11/22 10:25:09;;;;;;;26.00;10.83;;;-0.40;99.90;;;;;;4431482;28;658052;-77
2023/11/22 10:27:58;;;;;;;23.67;11.33;;;-0.40;99.90;;;;;;4440063;27;659264;-76
2023/11/22 10:30:47;;;;;;;19.23;8.13;;;-0.50;99.90;;;;;;4457282;27;659380;-77
2023/11/22 10:33:34;;;;;;;19.73;10.10;;;-0.50;99.90;;;;;;4435292;27;657560;-77
2023/11/22 10:36:21;;;;;;;21.90;9.97;;;-0.30;99.90;;;;;;4449142;27;658919;-77
2023/11/22 10:39:15;;;;;;;22.50;10.13;;;-0.20;99.90;;;;;;4432023;27;657392;-78
2023/11/22 10:42:04;;;;;;;17.27;8.67;;;-0.20;99.90;;;;;;4413741;28;659075;-76
2023/11/22 10:44:51;;;;;;;18.43;8.47;;;-0.30;99.90;;;;;;4462481;27;657966;-78
2023/11/22 10:47:42;;;;;;;16.80;8.07;;;-0.30;99.90;;;;;;4432167;27;658112;-78
2023/11/22 10:50:29;;;;;;;18.60;9.27;;;-0.40;99.90;;;;;;4430580;27;658940;-78
2023/11/22 10:53:18;;;;;;;19.27;9.93;;;-0.40;99.90;;;;;;4459868;27;657631;-77
2023/11/22 10:56:11;;;;;;;21.40;9.30;;;-0.40;99.90;;;;;;4435063;27;657676;-78
2023/11/22 10:58:58;;;;;;;24.37;10.50;;;-0.50;99.90;;;;;;4432105;27;657957;-78
2023/11/22 11:01:51;;;;;;;22.33;9.77;;;-0.50;99.90;;;;;;4458206;27;659077;-77
2023/11/22 11:04:46;;;;;;;27.00;10.27;;;-0.50;99.90;;;;;;4439640;27;657442;-77
2023/11/22 11:07:33;;;;;;;18.43;9.47;;;-0.50;99.90;;;;;;4402722;27;658401;-77
2023/11/22 11:10:22;;;;;;;19.93;9.70;;;-0.50;99.90;;;;;;4446320;28;658505;-78
2023/11/22 11:13:10;;;;;;;22.17;9.03;;;-0.40;99.90;;;;;;4432053;28;658519;-77
2023/11/22 11:15:57;;;;;;;21.53;9.40;;;-0.40;99.90;;;;;;4434188;27;658086;-78
2023/11/22 11:18:45;;;;;;;17.47;8.50;;;-0.50;99.90;;;;;;4451064;28;658512;-77
2023/11/22 11:21:34;;;;;;;23.23;10.13;;;-0.50;99.90;;;;;;4458956;27;657670;-78
2023/11/22 11:24:21;;;;;;;12.95;6.47;;;-0.50;99.90;;;;;;4425810;27;658834;-77
2023/11/22 11:27:08;;;;;;;15.60;8.00;;;-0.50;99.90;;;;;;4433132;28;657588;-77
2023/11/22 11:29:56;;;;;;;18.13;9.27;;;-0.60;99.90;;;;;;4449924;27;657640;-78
2023/11/22 11:32:43;;;;;;;19.87;9.60;;;-0.50;99.90;;;;;;4425430;28;657301;-77
2023/11/22 11:35:38;;;;;;;23.13;10.00;;;-0.60;99.90;;;;;;4453751;27;658436;-77
2023/11/22 11:38:32;;;;;;;17.83;8.50;;;-0.50;99.90;;;;;;4436468;28;659801;-77
2023/11/22 11:41:19;;;;;;;21.00;9.57;;;-0.40;99.90;;;;;;4434173;28;657626;-77
2023/11/22 11:44:09;;;;;;;19.47;9.20;;;-0.50;99.90;;;;;;4461682;28;657362;-77
2023/11/22 11:46:56;;;;;;;22.27;9.20;;;-0.60;99.90;;;;;;4428093;28;657408;-76
2023/11/22 11:49:43;;;;;;;18.47;7.77;;;-0.50;99.90;;;;;;4432960;27;657570;-77
2023/11/22 11:52:31;;;;;;;17.83;8.03;;;-0.50;99.90;;;;;;4461507;27;658162;-77
2023/11/22 11:55:20;;;;;;;15.90;7.97;;;-0.60;99.90;;;;;;4434609;28;657669;-77
2023/11/22 11:58:09;;;;;;;16.17;8.67;;;-0.50;99.90;;;;;;4452366;28;657990;-75
2023/11/22 12:00:56;;;;;;;14.23;7.90;;;-0.50;99.90;;;;;;4458861;28;658764;-77
2023/11/22 12:03:43;;;;;;;15.70;7.83;;;-0.50;99.90;;;;;;4420570;28;657640;-77
2023/11/22 12:06:30;;;;;;;19.93;8.80;;;-0.50;99.90;;;;;;4444219;28;658264;-78
2023/11/22 12:09:25;;;;;;;20.27;7.37;;;-0.50;99.90;;;;;;4425648;28;657546;-77
2023/11/22 12:12:14;;;;;;;16.67;7.17;;;-0.40;99.90;;;;;;4442375;28;658003;-76
2023/11/22 12:15:02;;;;;;;17.27;8.30;;;-0.40;99.90;;;;;;4441672;28;657338;-77
2023/11/22 12:17:50;;;;;;;19.97;7.97;;;-0.40;99.90;;;;;;4421432;28;657987;-76
2023/11/22 12:20:39;;;;;;;15.37;7.87;;;-0.40;99.90;;;;;;4435456;28;657622;-77
2023/11/22 12:23:27;;;;;;;14.93;6.60;;;-0.40;99.90;;;;;;4452283;28;657698;-77
2023/11/22 12:26:15;;;;;;;15.40;6.73;;;-0.40;99.90;;;;;;4429720;28;658122;-77
2023/11/22 12:29:04;;;;;;;13.57;6.37;;;-0.30;99.90;;;;;;4442965;28;657788;-75
2023/11/22 12:31:55;;;;;;;14.13;6.27;;;-0.30;99.90;;;;;;4453988;27;657723;-77
2023/11/22 12:34:42;;;;;;;13.93;6.50;;;-0.30;99.90;;;;;;4449232;27;657956;-76
2023/11/22 12:37:31;;;;;;;10.90;5.77;;;-0.20;99.90;;;;;;4446103;27;658919;-77
2023/11/22 12:40:20;;;;;;;12.90;6.37;;;-0.20;99.90;;;;;;4437402;27;657964;-77
2023/11/22 12:43:08;;;;;;;13.97;6.43;;;-0.20;99.90;;;;;;4432300;27;657596;-76
2023/11/22 12:46:03;;;;;;;12.63;6.30;;;-0.30;99.90;;;;;;4452997;28;658381;-77
2023/11/22 12:48:50;;;;;;;16.90;7.60;;;-0.40;99.90;;;;;;4429809;27;657476;-77
2023/11/22 12:51:38;;;;;;;13.77;6.70;;;-0.40;99.90;;;;;;4433592;27;657950;-77
2023/11/22 12:54:25;;;;;;;13.67;7.13;;;-0.40;99.90;;;;;;4444559;27;658450;-77
2023/11/22 12:57:13;;;;;;;12.70;6.60;;;-0.50;99.90;;;;;;4437669;27;658259;-76
2023/11/22 13:00:00;;;;;;;11.30;6.57;;;-0.50;99.90;;;;;;4463291;27;658275;-78
2023/11/22 13:02:49;;;;;;;15.53;8.03;;;-0.50;99.90;;;;;;4443212;28;657859;-76
2023/11/22 13:05:36;;;;;;;15.37;7.50;;;-0.50;99.90;;;;;;4457639;27;657863;-78
2023/11/22 13:08:28;;;;;;;18.33;7.40;;;-0.60;99.90;;;;;;4437219;27;657669;-77
2023/11/22 13:11:16;;;;;;;17.30;8.00;;;-0.80;99.90;;;;;;4436607;28;659419;-77
2023/11/22 13:14:03;;;;;;;16.50;7.13;;;-0.90;99.90;;;;;;4426841;27;658324;-76
2023/11/22 13:16:50;;;;;;;19.30;9.17;;;-0.80;99.90;;;;;;4460008;27;658616;-77
2023/11/22 13:19:40;;;;;;;18.05;9.02;;;-0.80;99.90;;;;;;4443356;27;657735;-76
2023/11/22 13:22:27;;;;;;;22.20;10.27;;;-0.90;99.90;;;;;;4464637;28;657071;-78
2023/11/22 13:25:14;;;;;;;17.37;8.43;;;-0.90;99.90;;;;;;4430403;27;660128;-77
2023/11/22 13:28:02;;;;;;;19.53;8.97;;;-0.90;99.90;;;;;;4459030;27;657327;-77
2023/11/22 13:30:50;;;;;;;18.83;8.67;;;-0.90;99.90;;;;;;4433389;27;657929;-77
2023/11/22 13:33:38;;;;;;;15.65;8.60;;;-0.90;99.90;;;;;;4428692;27;657445;-77
2023/11/22 13:36:27;;;;;;;22.00;8.93;;;-0.90;99.90;;;;;;4456754;27;657560;-77
2023/11/22 13:39:15;;;;;;;20.13;10.13;;;-0.80;99.90;;;;;;4435155;28;658831;-77
2023/11/22 13:42:02;;;;;;;25.57;11.70;;;-0.90;99.90;;;;;;4453322;27;658643;-77
2023/11/22 13:44:50;;;;;;;19.37;9.13;;;-0.80;99.90;;;;;;4426513;27;658920;-78
2023/11/22 13:47:37;;;;;;;21.43;9.67;;;-0.80;99.90;;;;;;4450124;27;658662;-76
2023/11/22 13:50:26;;;;;;;16.00;7.63;;;-0.80;99.90;;;;;;4454283;28;658051;-76
2023/11/22 13:53:16;;;;;;;14.20;7.03;;;-0.90;99.90;;;;;;4431137;27;657598;-77
2023/11/22 13:56:08;;;;;;;18.13;7.63;;;-0.90;99.90;;;;;;4431940;27;658752;-77
2023/11/22 13:58:55;;;;;;;17.80;9.07;;;-0.90;99.90;;;;;;4431218;28;657773;-78
2023/11/22 14:01:42;;;;;;;18.77;7.80;;;-0.90;99.90;;;;;;4429240;28;657622;-77
2023/11/22 14:04:30;;;;;;;19.30;8.67;;;-1.00;99.90;;;;;;4454781;28;658229;-77